sensor_id;sensor_type;location;lat;lon;timestamp;P1;durP1;ratioP1;P2;durP2;ratioP2
17347;SDS011;8791;50.876;4.342;2024-02-14T00:00:50;7.80;;;4.83;;
17347;SDS011;8791;50.876;4.342;2024-02-14T00:03:17;7.03;;;4.33;;
17347;SDS011;8791;50.876;4.342;2024-02-14T00:05:45;9.20;;;5.03;;
17347;SDS011;8791;50.876;4.342;2024-02-14T00:08:13;6.47;;;4.43;;
17347;SDS011;8791;50.876;4.342;2024-02-14T00:10:40;6.90;;;4.07;;
17347;SDS011;8791;50.876;4.342;2024-02-14T00:13:08;8.90;;;4.30;;
17347;SDS011;8791;50.876;4.342;2024-02-14T00:15:35;6.53;;;4.63;;
17347;SDS011;8791;50.876;4.342;2024-02-14T00:18:04;11.97;;;4.60;;
17347;SDS011;8791;50.876;4.342;2024-02-14T00:20:31;9.87;;;4.30;;
17347;SDS011;8791;50.876;4.342;2024-02-14T00:22:58;6.63;;;4.67;;
17347;SDS011;8791;50.876;4.342;2024-02-14T00:25:25;5.93;;;4.10;;
17347;SDS011;8791;50.876;4.342;2024-02-14T00:27:51;6.10;;;4.40;;
17347;SDS011;8791;50.876;4.342;2024-02-14T00:30:19;7.17;;;4.57;;
17347;SDS011;8791;50.876;4.342;2024-02-14T00:32:48;7.27;;;4.10;;
17347;SDS011;8791;50.876;4.342;2024-02-14T00:35:16;7.30;;;4.07;;
17347;SDS011;8791;50.876;4.342;2024-02-14T00:37:43;6.30;;;3.57;;
17347;SDS011;8791;50.876;4.342;2024-02-14T00:40:10;5.97;;;3.90;;
17347;SDS011;8791;50.876;4.342;2024-02-14T00:42:37;6.80;;;3.70;;
17347;SDS011;8791;50.876;4.342;2024-02-14T00:45:05;7.87;;;4.90;;
17347;SDS011;8791;50.876;4.342;2024-02-14T00:47:33;6.20;;;3.70;;
17347;SDS011;8791;50.876;4.342;2024-02-14T00:50:00;8.60;;;3.97;;
17347;SDS011;8791;50.876;4.342;2024-02-14T00:52:29;5.13;;;3.77;;
17347;SDS011;8791;50.876;4.342;2024-02-14T00:54:56;9.40;;;4.07;;
17347;SDS011;8791;50.876;4.342;2024-02-14T00:57:22;7.60;;;3.90;;
17347;SDS011;8791;50.876;4.342;2024-02-14T00:59:51;6.17;;;3.80;;
17347;SDS011;8791;50.876;4.342;2024-02-14T01:02:17;5.63;;;3.50;;
17347;SDS011;8791;50.876;4.342;2024-02-14T01:04:45;4.77;;;3.63;;
17347;SDS011;8791;50.876;4.342;2024-02-14T01:07:12;11.40;;;4.03;;
17347;SDS011;8791;50.876;4.342;2024-02-14T01:09:41;7.37;;;4.03;;
17347;SDS011;8791;50.876;4.342;2024-02-14T01:12:07;8.97;;;3.80;;
17347;SDS011;8791;50.876;4.342;2024-02-14T01:14:34;6.27;;;3.73;;
17347;SDS011;8791;50.876;4.342;2024-02-14T01:17:01;7.90;;;4.90;;
17347;SDS011;8791;50.876;4.342;2024-02-14T01:19:29;8.73;;;4.83;;
17347;SDS011;8791;50.876;4.342;2024-02-14T01:21:56;9.90;;;5.30;;
17347;SDS011;8791;50.876;4.342;2024-02-14T01:24:23;10.40;;;4.53;;
17347;SDS011;8791;50.876;4.342;2024-02-14T01:26:53;6.90;;;4.80;;
17347;SDS011;8791;50.876;4.342;2024-02-14T01:29:20;6.23;;;4.57;;
17347;SDS011;8791;50.876;4.342;2024-02-14T01:31:48;8.77;;;4.77;;
17347;SDS011;8791;50.876;4.342;2024-02-14T01:34:15;8.53;;;4.83;;
17347;SDS011;8791;50.876;4.342;2024-02-14T01:36:42;8.37;;;4.87;;
17347;SDS011;8791;50.876;4.342;2024-02-14T01:39:08;7.57;;;4.57;;
17347;SDS011;8791;50.876;4.342;2024-02-14T01:41:36;7.10;;;5.10;;
17347;SDS011;8791;50.876;4.342;2024-02-14T01:44:04;11.17;;;4.70;;
17347;SDS011;8791;50.876;4.342;2024-02-14T01:46:31;10.50;;;5.30;;
17347;SDS011;8791;50.876;4.342;2024-02-14T01:48:58;8.37;;;5.20;;
17347;SDS011;8791;50.876;4.342;2024-02-14T01:51:25;8.83;;;4.67;;
17347;SDS011;8791;50.876;4.342;2024-02-14T01:53:52;11.80;;;5.37;;
17347;SDS011;8791;50.876;4.342;2024-02-14T01:56:21;16.63;;;5.57;;
17347;SDS011;8791;50.876;4.342;2024-02-14T01:58:47;15.00;;;5.50;;
17347;SDS011;8791;50.876;4.342;2024-02-14T02:01:16;8.90;;;5.50;;
17347;SDS011;8791;50.876;4.342;2024-02-14T02:03:44;13.00;;;5.90;;
17347;SDS011;8791;50.876;4.342;2024-02-14T02:06:10;9.93;;;5.80;;
17347;SDS011;8791;50.876;4.342;2024-02-14T02:08:37;10.50;;;5.60;;
17347;SDS011;8791;50.876;4.342;2024-02-14T02:11:04;14.83;;;6.13;;
17347;SDS011;8791;50.876;4.342;2024-02-14T02:13:32;12.53;;;6.17;;
17347;SDS011;8791;50.876;4.342;2024-02-14T02:15:59;13.33;;;6.10;;
17347;SDS011;8791;50.876;4.342;2024-02-14T02:18:31;14.30;;;6.20;;
17347;SDS011;8791;50.876;4.342;2024-02-14T02:20:58;11.03;;;6.00;;
17347;SDS011;8791;50.876;4.342;2024-02-14T02:23:26;12.67;;;6.00;;
17347;SDS011;8791;50.876;4.342;2024-02-14T02:25:53;14.97;;;6.13;;
17347;SDS011;8791;50.876;4.342;2024-02-14T02:28:19;11.43;;;5.23;;
17347;SDS011;8791;50.876;4.342;2024-02-14T02:30:46;12.37;;;6.07;;
17347;SDS011;8791;50.876;4.342;2024-02-14T02:33:13;12.47;;;6.30;;
17347;SDS011;8791;50.876;4.342;2024-02-14T02:35:41;13.20;;;6.07;;
17347;SDS011;8791;50.876;4.342;2024-02-14T02:38:10;11.30;;;5.77;;
17347;SDS011;8791;50.876;4.342;2024-02-14T02:40:38;13.63;;;6.23;;
17347;SDS011;8791;50.876;4.342;2024-02-14T02:43:05;12.47;;;6.23;;
17347;SDS011;8791;50.876;4.342;2024-02-14T02:45:32;12.47;;;5.87;;
17347;SDS011;8791;50.876;4.342;2024-02-14T02:47:59;14.83;;;6.20;;
17347;SDS011;8791;50.876;4.342;2024-02-14T02:50:26;8.67;;;5.67;;
17347;SDS011;8791;50.876;4.342;2024-02-14T02:52:53;9.43;;;5.73;;
17347;SDS011;8791;50.876;4.342;2024-02-14T02:55:22;22.60;;;5.80;;
17347;SDS011;8791;50.876;4.342;2024-02-14T02:57:50;11.13;;;6.27;;
17347;SDS011;8791;50.876;4.342;2024-02-14T03:00:18;9.07;;;6.00;;
17347;SDS011;8791;50.876;4.342;2024-02-14T03:02:46;10.33;;;6.03;;
17347;SDS011;8791;50.876;4.342;2024-02-14T03:05:14;10.37;;;5.63;;
17347;SDS011;8791;50.876;4.342;2024-02-14T03:07:43;7.97;;;5.57;;
17347;SDS011;8791;50.876;4.342;2024-02-14T03:10:13;10.17;;;5.80;;
17347;SDS011;8791;50.876;4.342;2024-02-14T03:12:42;11.30;;;6.33;;
17347;SDS011;8791;50.876;4.342;2024-02-14T03:15:13;12.87;;;6.47;;
17347;SDS011;8791;50.876;4.342;2024-02-14T03:17:39;13.97;;;7.07;;
17347;SDS011;8791;50.876;4.342;2024-02-14T03:20:07;7.77;;;5.60;;
17347;SDS011;8791;50.876;4.342;2024-02-14T03:22:37;13.83;;;6.63;;
17347;SDS011;8791;50.876;4.342;2024-02-14T03:25:07;14.47;;;7.07;;
17347;SDS011;8791;50.876;4.342;2024-02-14T03:27:34;10.37;;;6.13;;
17347;SDS011;8791;50.876;4.342;2024-02-14T03:30:02;9.30;;;5.77;;
17347;SDS011;8791;50.876;4.342;2024-02-14T03:32:31;13.07;;;5.93;;
17347;SDS011;8791;50.876;4.342;2024-02-14T03:34:58;8.40;;;5.67;;
17347;SDS011;8791;50.876;4.342;2024-02-14T03:37:25;10.97;;;5.90;;
17347;SDS011;8791;50.876;4.342;2024-02-14T03:39:52;11.67;;;5.07;;
17347;SDS011;8791;50.876;4.342;2024-02-14T03:42:19;8.47;;;5.40;;
17347;SDS011;8791;50.876;4.342;2024-02-14T03:44:46;8.03;;;6.00;;
17347;SDS011;8791;50.876;4.342;2024-02-14T03:47:13;11.80;;;6.17;;
17347;SDS011;8791;50.876;4.342;2024-02-14T03:49:41;8.73;;;6.07;;
17347;SDS011;8791;50.876;4.342;2024-02-14T03:52:08;11.43;;;5.97;;
17347;SDS011;8791;50.876;4.342;2024-02-14T03:54:36;6.97;;;5.43;;
17347;SDS011;8791;50.876;4.342;2024-02-14T03:57:03;10.30;;;5.77;;
17347;SDS011;8791;50.876;4.342;2024-02-14T03:59:35;7.77;;;6.07;;
17347;SDS011;8791;50.876;4.342;2024-02-14T04:02:03;18.20;;;6.07;;
17347;SDS011;8791;50.876;4.342;2024-02-14T04:04:32;9.10;;;6.57;;
17347;SDS011;8791;50.876;4.342;2024-02-14T04:07:00;12.87;;;6.50;;
17347;SDS011;8791;50.876;4.342;2024-02-14T04:09:28;7.80;;;6.30;;
17347;SDS011;8791;50.876;4.342;2024-02-14T04:11:55;6.37;;;5.70;;
17347;SDS011;8791;50.876;4.342;2024-02-14T04:14:22;10.63;;;7.70;;
17347;SDS011;8791;50.876;4.342;2024-02-14T04:16:48;10.67;;;7.17;;
17347;SDS011;8791;50.876;4.342;2024-02-14T04:19:15;10.77;;;6.87;;
17347;SDS011;8791;50.876;4.342;2024-02-14T04:21:42;13.23;;;6.70;;
17347;SDS011;8791;50.876;4.342;2024-02-14T04:24:11;8.10;;;6.40;;
17347;SDS011;8791;50.876;4.342;2024-02-14T04:26:38;10.13;;;6.97;;
17347;SDS011;8791;50.876;4.342;2024-02-14T04:29:05;21.00;;;8.27;;
17347;SDS011;8791;50.876;4.342;2024-02-14T04:31:33;12.53;;;7.40;;
17347;SDS011;8791;50.876;4.342;2024-02-14T04:34:00;13.23;;;8.13;;
17347;SDS011;8791;50.876;4.342;2024-02-14T04:36:27;16.80;;;7.73;;
17347;SDS011;8791;50.876;4.342;2024-02-14T04:38:57;13.47;;;8.07;;
17347;SDS011;8791;50.876;4.342;2024-02-14T04:41:25;15.87;;;8.50;;
17347;SDS011;8791;50.876;4.342;2024-02-14T04:43:51;18.50;;;8.07;;
17347;SDS011;8791;50.876;4.342;2024-02-14T04:46:18;14.77;;;7.70;;
17347;SDS011;8791;50.876;4.342;2024-02-14T04:48:47;17.53;;;7.70;;
17347;SDS011;8791;50.876;4.342;2024-02-14T04:51:14;16.97;;;7.50;;
17347;SDS011;8791;50.876;4.342;2024-02-14T04:53:41;18.43;;;8.40;;
17347;SDS011;8791;50.876;4.342;2024-02-14T04:56:07;13.80;;;7.83;;
17347;SDS011;8791;50.876;4.342;2024-02-14T04:58:36;22.73;;;8.80;;
17347;SDS011;8791;50.876;4.342;2024-02-14T05:01:02;12.50;;;8.07;;
17347;SDS011;8791;50.876;4.342;2024-02-14T05:03:30;16.03;;;7.97;;
17347;SDS011;8791;50.876;4.342;2024-02-14T05:05:56;13.03;;;8.80;;
17347;SDS011;8791;50.876;4.342;2024-02-14T05:08:24;13.40;;;8.03;;
17347;SDS011;8791;50.876;4.342;2024-02-14T05:10:50;16.83;;;8.63;;
17347;SDS011;8791;50.876;4.342;2024-02-14T05:13:17;18.20;;;9.57;;
17347;SDS011;8791;50.876;4.342;2024-02-14T05:15:46;18.47;;;8.23;;
17347;SDS011;8791;50.876;4.342;2024-02-14T05:18:12;14.27;;;8.67;;
17347;SDS011;8791;50.876;4.342;2024-02-14T05:20:41;15.83;;;8.87;;
17347;SDS011;8791;50.876;4.342;2024-02-14T05:23:07;20.60;;;9.57;;
17347;SDS011;8791;50.876;4.342;2024-02-14T05:25:36;20.07;;;9.40;;
17347;SDS011;8791;50.876;4.342;2024-02-14T05:28:03;15.87;;;8.73;;
17347;SDS011;8791;50.876;4.342;2024-02-14T05:30:30;18.80;;;8.83;;
17347;SDS011;8791;50.876;4.342;2024-02-14T05:32:59;12.47;;;8.87;;
17347;SDS011;8791;50.876;4.342;2024-02-14T05:35:26;16.77;;;8.17;;
17347;SDS011;8791;50.876;4.342;2024-02-14T05:37:53;18.13;;;9.00;;
17347;SDS011;8791;50.876;4.342;2024-02-14T05:40:20;20.00;;;9.90;;
17347;SDS011;8791;50.876;4.342;2024-02-14T05:42:47;23.37;;;9.53;;
17347;SDS011;8791;50.876;4.342;2024-02-14T05:45:14;23.63;;;9.27;;
17347;SDS011;8791;50.876;4.342;2024-02-14T05:47:42;21.83;;;8.97;;
17347;SDS011;8791;50.876;4.342;2024-02-14T05:50:10;18.43;;;9.33;;
17347;SDS011;8791;50.876;4.342;2024-02-14T05:52:38;16.20;;;8.37;;
17347;SDS011;8791;50.876;4.342;2024-02-14T05:55:05;18.60;;;8.83;;
17347;SDS011;8791;50.876;4.342;2024-02-14T05:57:33;19.60;;;8.77;;
17347;SDS011;8791;50.876;4.342;2024-02-14T06:00:00;15.57;;;8.73;;
17347;SDS011;8791;50.876;4.342;2024-02-14T06:02:28;20.30;;;8.93;;
17347;SDS011;8791;50.876;4.342;2024-02-14T06:04:54;17.30;;;8.80;;
17347;SDS011;8791;50.876;4.342;2024-02-14T06:07:23;16.67;;;9.07;;
17347;SDS011;8791;50.876;4.342;2024-02-14T06:09:50;17.73;;;8.70;;
17347;SDS011;8791;50.876;4.342;2024-02-14T06:12:17;24.73;;;8.73;;
17347;SDS011;8791;50.876;4.342;2024-02-14T06:14:47;19.43;;;8.27;;
17347;SDS011;8791;50.876;4.342;2024-02-14T06:17:14;17.90;;;8.60;;
17347;SDS011;8791;50.876;4.342;2024-02-14T06:19:41;17.97;;;8.87;;
17347;SDS011;8791;50.876;4.342;2024-02-14T06:22:08;14.63;;;8.37;;
17347;SDS011;8791;50.876;4.342;2024-02-14T06:24:37;21.00;;;8.43;;
17347;SDS011;8791;50.876;4.342;2024-02-14T06:27:04;17.00;;;8.80;;
17347;SDS011;8791;50.876;4.342;2024-02-14T06:29:31;16.10;;;8.27;;
17347;SDS011;8791;50.876;4.342;2024-02-14T06:31:58;23.70;;;8.17;;
17347;SDS011;8791;50.876;4.342;2024-02-14T06:34:24;18.60;;;7.57;;
17347;SDS011;8791;50.876;4.342;2024-02-14T06:36:53;22.77;;;9.40;;
17347;SDS011;8791;50.876;4.342;2024-02-14T06:39:20;18.70;;;8.27;;
17347;SDS011;8791;50.876;4.342;2024-02-14T06:41:48;17.67;;;8.30;;
17347;SDS011;8791;50.876;4.342;2024-02-14T06:44:15;15.63;;;7.80;;
17347;SDS011;8791;50.876;4.342;2024-02-14T06:46:43;19.57;;;8.93;;
17347;SDS011;8791;50.876;4.342;2024-02-14T06:49:10;18.40;;;8.03;;
17347;SDS011;8791;50.876;4.342;2024-02-14T06:51:37;25.93;;;7.80;;
17347;SDS011;8791;50.876;4.342;2024-02-14T06:54:03;23.60;;;7.73;;
17347;SDS011;8791;50.876;4.342;2024-02-14T06:56:30;23.27;;;9.10;;
17347;SDS011;8791;50.876;4.342;2024-02-14T06:58:59;20.80;;;8.30;;
17347;SDS011;8791;50.876;4.342;2024-02-14T07:01:27;17.53;;;8.27;;
17347;SDS011;8791;50.876;4.342;2024-02-14T07:03:54;17.03;;;8.17;;
17347;SDS011;8791;50.876;4.342;2024-02-14T07:06:21;17.33;;;8.17;;
17347;SDS011;8791;50.876;4.342;2024-02-14T07:08:48;18.10;;;8.53;;
17347;SDS011;8791;50.876;4.342;2024-02-14T07:11:15;21.77;;;9.03;;
17347;SDS011;8791;50.876;4.342;2024-02-14T07:13:42;23.03;;;8.37;;
17347;SDS011;8791;50.876;4.342;2024-02-14T07:16:10;15.67;;;8.30;;
17347;SDS011;8791;50.876;4.342;2024-02-14T07:18:37;21.97;;;9.17;;
17347;SDS011;8791;50.876;4.342;2024-02-14T07:21:05;21.37;;;8.37;;
17347;SDS011;8791;50.876;4.342;2024-02-14T07:23:33;22.17;;;8.43;;
17347;SDS011;8791;50.876;4.342;2024-02-14T07:26:00;19.93;;;8.97;;
17347;SDS011;8791;50.876;4.342;2024-02-14T07:28:27;26.83;;;13.87;;
17347;SDS011;8791;50.876;4.342;2024-02-14T07:30:54;15.73;;;7.43;;
17347;SDS011;8791;50.876;4.342;2024-02-14T07:33:22;23.57;;;8.63;;
17347;SDS011;8791;50.876;4.342;2024-02-14T07:35:49;16.17;;;7.80;;
17347;SDS011;8791;50.876;4.342;2024-02-14T07:38:16;19.40;;;8.47;;
17347;SDS011;8791;50.876;4.342;2024-02-14T07:40:43;15.50;;;7.47;;
17347;SDS011;8791;50.876;4.342;2024-02-14T07:43:10;19.67;;;7.93;;
17347;SDS011;8791;50.876;4.342;2024-02-14T07:45:36;18.93;;;8.23;;
17347;SDS011;8791;50.876;4.342;2024-02-14T07:48:04;22.40;;;8.30;;
17347;SDS011;8791;50.876;4.342;2024-02-14T07:50:34;14.90;;;7.60;;
17347;SDS011;8791;50.876;4.342;2024-02-14T07:53:02;14.73;;;8.27;;
17347;SDS011;8791;50.876;4.342;2024-02-14T07:55:29;16.07;;;7.50;;
17347;SDS011;8791;50.876;4.342;2024-02-14T07:57:56;21.27;;;8.13;;
17347;SDS011;8791;50.876;4.342;2024-02-14T08:00:24;18.67;;;8.40;;
17347;SDS011;8791;50.876;4.342;2024-02-14T08:02:51;20.27;;;7.40;;
17347;SDS011;8791;50.876;4.342;2024-02-14T08:05:18;18.37;;;7.50;;
17347;SDS011;8791;50.876;4.342;2024-02-14T08:07:47;20.37;;;8.80;;
17347;SDS011;8791;50.876;4.342;2024-02-14T08:10:14;18.80;;;8.30;;
17347;SDS011;8791;50.876;4.342;2024-02-14T08:12:41;18.17;;;8.30;;
17347;SDS011;8791;50.876;4.342;2024-02-14T08:15:08;22.23;;;8.93;;
17347;SDS011;8791;50.876;4.342;2024-02-14T08:17:35;21.37;;;8.57;;
17347;SDS011;8791;50.876;4.342;2024-02-14T08:20:03;23.47;;;9.47;;
17347;SDS011;8791;50.876;4.342;2024-02-14T08:22:30;17.83;;;8.97;;
17347;SDS011;8791;50.876;4.342;2024-02-14T08:24:58;20.40;;;8.67;;
17347;SDS011;8791;50.876;4.342;2024-02-14T08:27:25;22.17;;;9.60;;
17347;SDS011;8791;50.876;4.342;2024-02-14T08:29:52;23.40;;;9.70;;
17347;SDS011;8791;50.876;4.342;2024-02-14T08:32:20;23.47;;;9.13;;
17347;SDS011;8791;50.876;4.342;2024-02-14T08:34:47;17.83;;;8.83;;
17347;SDS011;8791;50.876;4.342;2024-02-14T08:37:15;24.60;;;8.53;;
17347;SDS011;8791;50.876;4.342;2024-02-14T08:39:42;23.30;;;9.03;;
17347;SDS011;8791;50.876;4.342;2024-02-14T08:42:10;18.13;;;8.77;;
17347;SDS011;8791;50.876;4.342;2024-02-14T08:44:37;29.30;;;9.67;;
17347;SDS011;8791;50.876;4.342;2024-02-14T08:47:04;18.50;;;8.53;;
17347;SDS011;8791;50.876;4.342;2024-02-14T08:49:30;18.13;;;8.53;;
17347;SDS011;8791;50.876;4.342;2024-02-14T08:51:57;18.40;;;9.00;;
17347;SDS011;8791;50.876;4.342;2024-02-14T08:54:24;16.23;;;8.63;;
17347;SDS011;8791;50.876;4.342;2024-02-14T08:56:53;18.33;;;9.47;;
17347;SDS011;8791;50.876;4.342;2024-02-14T08:59:24;22.43;;;8.97;;
17347;SDS011;8791;50.876;4.342;2024-02-14T09:01:51;22.90;;;8.87;;
17347;SDS011;8791;50.876;4.342;2024-02-14T09:04:18;17.73;;;8.17;;
17347;SDS011;8791;50.876;4.342;2024-02-14T09:06:45;16.50;;;9.20;;
17347;SDS011;8791;50.876;4.342;2024-02-14T09:09:12;18.07;;;8.63;;
17347;SDS011;8791;50.876;4.342;2024-02-14T09:11:40;24.33;;;8.80;;
17347;SDS011;8791;50.876;4.342;2024-02-14T09:14:07;14.37;;;8.33;;
17347;SDS011;8791;50.876;4.342;2024-02-14T09:16:36;16.23;;;8.83;;
17347;SDS011;8791;50.876;4.342;2024-02-14T09:19:04;17.53;;;8.77;;
17347;SDS011;8791;50.876;4.342;2024-02-14T09:21:32;19.63;;;9.03;;
17347;SDS011;8791;50.876;4.342;2024-02-14T09:24:00;21.57;;;9.93;;
17347;SDS011;8791;50.876;4.342;2024-02-14T09:26:28;14.23;;;8.97;;
17347;SDS011;8791;50.876;4.342;2024-02-14T09:28:55;17.67;;;9.30;;
17347;SDS011;8791;50.876;4.342;2024-02-14T09:31:21;16.77;;;9.67;;
17347;SDS011;8791;50.876;4.342;2024-02-14T09:33:50;22.20;;;10.23;;
17347;SDS011;8791;50.876;4.342;2024-02-14T09:36:21;16.83;;;9.27;;
17347;SDS011;8791;50.876;4.342;2024-02-14T09:38:48;18.93;;;9.50;;
17347;SDS011;8791;50.876;4.342;2024-02-14T09:41:15;16.53;;;9.00;;
17347;SDS011;8791;50.876;4.342;2024-02-14T09:43:49;15.17;;;8.70;;
17347;SDS011;8791;50.876;4.342;2024-02-14T09:46:16;19.23;;;10.40;;
17347;SDS011;8791;50.876;4.342;2024-02-14T09:48:43;13.40;;;9.63;;
17347;SDS011;8791;50.876;4.342;2024-02-14T09:51:12;16.67;;;8.83;;
17347;SDS011;8791;50.876;4.342;2024-02-14T09:53:39;18.33;;;9.60;;
17347;SDS011;8791;50.876;4.342;2024-02-14T09:56:08;18.90;;;9.10;;
17347;SDS011;8791;50.876;4.342;2024-02-14T09:58:41;18.70;;;9.60;;
17347;SDS011;8791;50.876;4.342;2024-02-14T10:01:10;20.27;;;9.67;;
17347;SDS011;8791;50.876;4.342;2024-02-14T10:03:37;17.30;;;8.87;;
17347;SDS011;8791;50.876;4.342;2024-02-14T10:06:03;12.97;;;8.97;;
17347;SDS011;8791;50.876;4.342;2024-02-14T10:08:32;15.73;;;9.47;;
17347;SDS011;8791;50.876;4.342;2024-02-14T10:10:59;23.80;;;10.30;;
17347;SDS011;8791;50.876;4.342;2024-02-14T10:13:29;15.93;;;9.67;;
17347;SDS011;8791;50.876;4.342;2024-02-14T10:15:56;19.60;;;9.87;;
17347;SDS011;8791;50.876;4.342;2024-02-14T10:18:23;22.20;;;9.77;;
17347;SDS011;8791;50.876;4.342;2024-02-14T10:20:52;22.83;;;9.00;;
17347;SDS011;8791;50.876;4.342;2024-02-14T10:23:20;15.77;;;9.13;;
17347;SDS011;8791;50.876;4.342;2024-02-14T10:25:48;22.47;;;8.70;;
17347;SDS011;8791;50.876;4.342;2024-02-14T10:28:16;14.53;;;8.20;;
17347;SDS011;8791;50.876;4.342;2024-02-14T10:30:45;14.87;;;8.77;;
17347;SDS011;8791;50.876;4.342;2024-02-14T10:33:12;22.10;;;8.63;;
17347;SDS011;8791;50.876;4.342;2024-02-14T10:35:40;14.90;;;8.60;;
17347;SDS011;8791;50.876;4.342;2024-02-14T10:38:08;17.17;;;7.50;;
17347;SDS011;8791;50.876;4.342;2024-02-14T10:40:35;14.00;;;7.80;;
17347;SDS011;8791;50.876;4.342;2024-02-14T10:43:04;13.10;;;7.90;;
17347;SDS011;8791;50.876;4.342;2024-02-14T10:45:32;18.50;;;8.20;;
17347;SDS011;8791;50.876;4.342;2024-02-14T10:47:59;28.93;;;10.83;;
17347;SDS011;8791;50.876;4.342;2024-02-14T10:50:27;11.40;;;7.00;;
17347;SDS011;8791;50.876;4.342;2024-02-14T10:52:58;17.60;;;8.37;;
17347;SDS011;8791;50.876;4.342;2024-02-14T10:55:30;25.40;;;9.30;;
17347;SDS011;8791;50.876;4.342;2024-02-14T10:57:59;16.63;;;8.07;;
17347;SDS011;8791;50.876;4.342;2024-02-14T11:00:27;31.07;;;12.37;;
17347;SDS011;8791;50.876;4.342;2024-02-14T11:02:57;18.00;;;9.43;;
17347;SDS011;8791;50.876;4.342;2024-02-14T11:05:26;11.57;;;7.93;;
17347;SDS011;8791;50.876;4.342;2024-02-14T11:07:53;12.73;;;7.67;;
17347;SDS011;8791;50.876;4.342;2024-02-14T11:10:22;13.90;;;7.53;;
17347;SDS011;8791;50.876;4.342;2024-02-14T11:12:49;12.57;;;10.10;;
17347;SDS011;8791;50.876;4.342;2024-02-14T11:15:17;11.33;;;6.17;;
17347;SDS011;8791;50.876;4.342;2024-02-14T11:17:47;8.80;;;6.67;;
17347;SDS011;8791;50.876;4.342;2024-02-14T11:20:17;13.03;;;7.70;;
17347;SDS011;8791;50.876;4.342;2024-02-14T11:22:54;9.20;;;6.77;;
17347;SDS011;8791;50.876;4.342;2024-02-14T11:25:22;9.87;;;6.83;;
17347;SDS011;8791;50.876;4.342;2024-02-14T11:27:54;14.07;;;7.10;;
17347;SDS011;8791;50.876;4.342;2024-02-14T11:30:31;14.10;;;8.67;;
17347;SDS011;8791;50.876;4.342;2024-02-14T11:33:17;10.33;;;7.40;;
17347;SDS011;8791;50.876;4.342;2024-02-14T11:35:45;7.80;;;6.80;;
17347;SDS011;8791;50.876;4.342;2024-02-14T11:38:15;6.47;;;5.70;;
17347;SDS011;8791;50.876;4.342;2024-02-14T11:40:42;6.50;;;5.57;;
17347;SDS011;8791;50.876;4.342;2024-02-14T11:43:12;8.40;;;5.30;;
17347;SDS011;8791;50.876;4.342;2024-02-14T11:45:41;5.50;;;4.93;;
17347;SDS011;8791;50.876;4.342;2024-02-14T11:48:08;9.40;;;6.10;;
17347;SDS011;8791;50.876;4.342;2024-02-14T11:50:39;8.50;;;5.90;;
17347;SDS011;8791;50.876;4.342;2024-02-14T11:53:08;5.90;;;5.37;;
17347;SDS011;8791;50.876;4.342;2024-02-14T11:55:36;9.50;;;5.93;;
17347;SDS011;8791;50.876;4.342;2024-02-14T11:58:06;6.27;;;5.67;;
17347;SDS011;8791;50.876;4.342;2024-02-14T12:00:33;6.67;;;5.60;;
17347;SDS011;8791;50.876;4.342;2024-02-14T12:03:03;8.67;;;5.30;;
17347;SDS011;8791;50.876;4.342;2024-02-14T12:05:32;7.93;;;5.60;;
17347;SDS011;8791;50.876;4.342;2024-02-14T12:08:01;6.40;;;5.80;;
17347;SDS011;8791;50.876;4.342;2024-02-14T12:10:30;8.67;;;5.83;;
17347;SDS011;8791;50.876;4.342;2024-02-14T12:12:58;9.17;;;6.70;;
17347;SDS011;8791;50.876;4.342;2024-02-14T12:15:25;11.77;;;5.50;;
17347;SDS011;8791;50.876;4.342;2024-02-14T12:17:54;9.00;;;5.97;;
17347;SDS011;8791;50.876;4.342;2024-02-14T12:20:21;9.80;;;5.83;;
17347;SDS011;8791;50.876;4.342;2024-02-14T12:22:49;8.87;;;5.40;;
17347;SDS011;8791;50.876;4.342;2024-02-14T12:25:18;6.47;;;5.50;;
17347;SDS011;8791;50.876;4.342;2024-02-14T12:27:49;11.77;;;7.90;;
17347;SDS011;8791;50.876;4.342;2024-02-14T12:30:17;6.90;;;5.13;;
17347;SDS011;8791;50.876;4.342;2024-02-14T12:32:57;10.20;;;5.50;;
17347;SDS011;8791;50.876;4.342;2024-02-14T12:35:24;15.20;;;9.17;;
17347;SDS011;8791;50.876;4.342;2024-02-14T12:37:51;5.90;;;5.37;;
17347;SDS011;8791;50.876;4.342;2024-02-14T12:40:24;6.73;;;5.20;;
17347;SDS011;8791;50.876;4.342;2024-02-14T12:42:51;7.23;;;4.70;;
17347;SDS011;8791;50.876;4.342;2024-02-14T12:45:18;8.17;;;5.60;;
17347;SDS011;8791;50.876;4.342;2024-02-14T12:47:45;7.50;;;5.10;;
17347;SDS011;8791;50.876;4.342;2024-02-14T12:50:12;9.97;;;5.33;;
17347;SDS011;8791;50.876;4.342;2024-02-14T12:52:39;8.17;;;5.03;;
17347;SDS011;8791;50.876;4.342;2024-02-14T12:55:06;8.70;;;5.30;;
17347;SDS011;8791;50.876;4.342;2024-02-14T12:57:35;8.57;;;6.47;;
17347;SDS011;8791;50.876;4.342;2024-02-14T13:00:02;11.80;;;6.07;;
17347;SDS011;8791;50.876;4.342;2024-02-14T13:02:31;8.93;;;5.47;;
17347;SDS011;8791;50.876;4.342;2024-02-14T13:04:58;5.80;;;5.30;;
17347;SDS011;8791;50.876;4.342;2024-02-14T13:07:25;11.83;;;6.70;;
17347;SDS011;8791;50.876;4.342;2024-02-14T13:09:52;10.00;;;5.50;;
17347;SDS011;8791;50.876;4.342;2024-02-14T13:12:20;11.43;;;6.40;;
17347;SDS011;8791;50.876;4.342;2024-02-14T13:14:48;8.03;;;5.63;;
17347;SDS011;8791;50.876;4.342;2024-02-14T13:17:15;8.47;;;4.87;;
17347;SDS011;8791;50.876;4.342;2024-02-14T13:19:42;6.40;;;4.57;;
17347;SDS011;8791;50.876;4.342;2024-02-14T13:22:09;7.57;;;4.97;;
17347;SDS011;8791;50.876;4.342;2024-02-14T13:24:36;10.27;;;5.70;;
17347;SDS011;8791;50.876;4.342;2024-02-14T13:27:03;8.63;;;4.67;;
17347;SDS011;8791;50.876;4.342;2024-02-14T13:29:30;7.20;;;4.53;;
17347;SDS011;8791;50.876;4.342;2024-02-14T13:31:58;5.63;;;3.87;;
17347;SDS011;8791;50.876;4.342;2024-02-14T13:34:27;7.83;;;4.20;;
17347;SDS011;8791;50.876;4.342;2024-02-14T13:36:54;8.67;;;5.07;;
17347;SDS011;8791;50.876;4.342;2024-02-14T13:39:21;5.30;;;4.03;;
17347;SDS011;8791;50.876;4.342;2024-02-14T13:41:48;8.40;;;4.47;;
17347;SDS011;8791;50.876;4.342;2024-02-14T13:44:16;11.77;;;4.30;;
17347;SDS011;8791;50.876;4.342;2024-02-14T13:46:43;6.47;;;4.50;;
17347;SDS011;8791;50.876;4.342;2024-02-14T13:49:12;7.03;;;4.00;;
17347;SDS011;8791;50.876;4.342;2024-02-14T13:51:43;8.83;;;4.43;;
17347;SDS011;8791;50.876;4.342;2024-02-14T13:54:10;7.80;;;4.23;;
17347;SDS011;8791;50.876;4.342;2024-02-14T13:56:37;5.23;;;4.50;;
17347;SDS011;8791;50.876;4.342;2024-02-14T13:59:03;9.40;;;4.17;;
17347;SDS011;8791;50.876;4.342;2024-02-14T14:01:30;6.20;;;4.30;;
17347;SDS011;8791;50.876;4.342;2024-02-14T14:03:57;8.57;;;3.90;;
17347;SDS011;8791;50.876;4.342;2024-02-14T14:06:25;8.00;;;4.17;;
17347;SDS011;8791;50.876;4.342;2024-02-14T14:08:52;4.93;;;3.80;;
17347;SDS011;8791;50.876;4.342;2024-02-14T14:11:19;5.83;;;3.43;;
17347;SDS011;8791;50.876;4.342;2024-02-14T14:13:47;5.00;;;3.40;;
17347;SDS011;8791;50.876;4.342;2024-02-14T14:16:14;9.17;;;3.80;;
17347;SDS011;8791;50.876;4.342;2024-02-14T14:18:42;4.13;;;3.73;;
17347;SDS011;8791;50.876;4.342;2024-02-14T14:21:09;8.00;;;4.00;;
17347;SDS011;8791;50.876;4.342;2024-02-14T14:23:37;4.10;;;3.70;;
17347;SDS011;8791;50.876;4.342;2024-02-14T14:26:04;7.30;;;3.67;;
17347;SDS011;8791;50.876;4.342;2024-02-14T14:28:31;5.13;;;3.27;;
17347;SDS011;8791;50.876;4.342;2024-02-14T14:30:58;6.70;;;3.10;;
17347;SDS011;8791;50.876;4.342;2024-02-14T14:33:27;4.73;;;3.43;;
17347;SDS011;8791;50.876;4.342;2024-02-14T14:35:54;4.13;;;3.10;;
17347;SDS011;8791;50.876;4.342;2024-02-14T14:38:21;6.87;;;3.37;;
17347;SDS011;8791;50.876;4.342;2024-02-14T14:40:50;9.70;;;5.03;;
17347;SDS011;8791;50.876;4.342;2024-02-14T14:43:20;3.97;;;3.57;;
17347;SDS011;8791;50.876;4.342;2024-02-14T14:45:47;6.73;;;4.10;;
17347;SDS011;8791;50.876;4.342;2024-02-14T14:48:14;8.97;;;4.60;;
17347;SDS011;8791;50.876;4.342;2024-02-14T14:50:52;7.50;;;5.30;;
17347;SDS011;8791;50.876;4.342;2024-02-14T14:53:22;7.33;;;3.40;;
17347;SDS011;8791;50.876;4.342;2024-02-14T14:56:06;3.70;;;3.27;;